Time;durP1;ratioP1;P1;durP2;ratioP2;P2;SDS_P1;SDS_P2;PMS_P1;PMS_P2;Temp;Humidity;BMP_temperature;BMP_pressure;BME280_temperature;BME280_humidity;BME280_pressure;Samples;Min_cycle;Max_cycle;Signal;HPM_P1;HPM_P2
2021/07/02 00:00:41;;;;;;;;;36.67;31.33;;;;;;;;5011354;28;46028;-77
2021/07/02 00:03:06;;;;;;;;;36.00;29.25;;;;;;;;5017309;28;45782;-77
2021/07/02 00:05:32;;;;;;;;;32.00;27.50;;;;;;;;5019505;28;45527;-77
2021/07/02 00:07:57;;;;;;;;;36.75;30.25;;;;;;;;5007730;28;45708;-78
2021/07/02 00:10:24;;;;;;;;;39.25;31.50;;;;;;;;5021485;28;46167;-77
2021/07/02 00:12:49;;;;;;;;;37.25;31.75;;;;;;;;5011540;28;45721;-78
2021/07/02 00:15:15;;;;;;;;;35.00;32.33;;;;;;;;5017509;28;45787;-77
2021/07/02 00:17:40;;;;;;;;;35.25;31.00;;;;;;;;5020375;28;45470;-77
2021/07/02 00:20:05;;;;;;;;;32.33;29.00;;;;;;;;5010630;28;45711;-77
2021/07/02 00:22:33;;;;;;;;;35.00;31.00;;;;;;;;5003838;28;45462;-78
2021/07/02 00:24:58;;;;;;;;;37.25;31.75;;;;;;;;5014542;28;52158;-77
2021/07/02 00:27:23;;;;;;;;;30.75;28.50;;;;;;;;5005888;28;45461;-77
2021/07/02 00:29:49;;;;;;;;;40.25;31.50;;;;;;;;5016436;28;46172;-77
2021/07/02 00:32:14;;;;;;;;;37.25;33.00;;;;;;;;5006515;28;45553;-77
2021/07/02 00:34:39;;;;;;;;;37.25;32.00;;;;;;;;5012138;28;45861;-77
2021/07/02 00:37:04;;;;;;;;;44.50;33.25;;;;;;;;5019471;28;45602;-77
2021/07/02 00:39:30;;;;;;;;;41.75;34.25;;;;;;;;5005637;28;46976;-78
2021/07/02 00:41:55;;;;;;;;;43.00;33.67;;;;;;;;5011231;28;45480;-77
2021/07/02 00:44:38;;;;;;;;;40.25;33.50;;;;;;;;5005843;28;47507;-77
2021/07/02 00:47:04;;;;;;;;;40.50;33.50;;;;;;;;5016440;28;45489;-77
2021/07/02 00:49:29;;;;;;;;;45.50;35.25;;;;;;;;5014827;28;47042;-77
2021/07/02 00:51:54;;;;;;;;;46.00;36.00;;;;;;;;5018687;28;45538;-77
2021/07/02 00:54:19;;;;;;;;;38.00;33.33;;;;;;;;5008568;28;45567;-77
2021/07/02 00:56:44;;;;;;;;;39.67;34.00;;;;;;;;5017525;28;61571;-78
2021/07/02 00:59:10;;;;;;;;;40.00;34.00;;;;;;;;5008520;28;45657;-78
2021/07/02 01:01:36;;;;;;;;;43.67;35.00;;;;;;;;5005943;28;45434;-79
2021/07/02 01:04:01;;;;;;;;;42.00;32.75;;;;;;;;5019166;28;45466;-79
2021/07/02 01:06:26;;;;;;;;;48.25;35.75;;;;;;;;5014405;28;45615;-78
2021/07/02 01:08:52;;;;;;;;;44.00;37.33;;;;;;;;5009659;28;51014;-79
2021/07/02 01:11:17;;;;;;;;;46.75;37.50;;;;;;;;5013009;28;46750;-78
2021/07/02 01:13:43;;;;;;;;;47.33;35.00;;;;;;;;5017031;28;46255;-79
2021/07/02 01:16:09;;;;;;;;;47.50;35.50;;;;;;;;5011613;28;45582;-79
2021/07/02 01:18:34;;;;;;;;;39.50;33.50;;;;;;;;5014712;28;58183;-79
2021/07/02 01:20:59;;;;;;;;;41.67;34.00;;;;;;;;5013536;28;45640;-79
2021/07/02 01:23:27;;;;;;;;;48.00;38.00;;;;;;;;5019982;28;45479;-78
2021/07/02 01:25:52;;;;;;;;;47.25;39.50;;;;;;;;5017220;28;45624;-79
2021/07/02 01:28:17;;;;;;;;;40.33;35.00;;;;;;;;5019653;28;46119;-78
2021/07/02 01:30:43;;;;;;;;;47.00;36.50;;;;;;;;5021961;28;46047;-79
2021/07/02 01:33:12;;;;;;;;;43.50;37.00;;;;;;;;5008696;28;45534;-79
2021/07/02 01:35:37;;;;;;;;;42.00;34.25;;;;;;;;5016913;28;47055;-78
2021/07/02 01:38:03;;;;;;;;;45.75;35.50;;;;;;;;5022212;28;50090;-79
2021/07/02 01:40:30;;;;;;;;;49.50;38.75;;;;;;;;5015233;28;45386;-79
2021/07/02 01:42:56;;;;;;;;;41.75;34.75;;;;;;;;5014463;28;45570;-79
2021/07/02 01:45:21;;;;;;;;;40.25;35.25;;;;;;;;5016318;28;45751;-78
2021/07/02 01:47:46;;;;;;;;;43.00;34.33;;;;;;;;5013393;28;48190;-78
2021/07/02 01:50:11;;;;;;;;;44.00;36.25;;;;;;;;5413546;22;45880;-78
2021/07/02 01:52:37;;;;;;;;;43.75;36.25;;;;;;;;5025393;28;45564;-78
2021/07/02 01:55:03;;;;;;;;;40.25;35.50;;;;;;;;5013560;28;45600;-79
2021/07/02 01:57:28;;;;;;;;;41.75;34.25;;;;;;;;5011270;28;46181;-77
2021/07/02 01:59:54;;;;;;;;;41.67;36.33;;;;;;;;5017410;28;45703;-77
2021/07/02 02:02:20;;;;;;;;;43.75;35.25;;;;;;;;5010833;28;45543;-77
2021/07/02 02:04:46;;;;;;;;;48.00;37.75;;;;;;;;5010957;28;45430;-77
2021/07/02 02:07:11;;;;;;;;;55.50;41.00;;;;;;;;5031093;28;47446;-78
2021/07/02 02:09:37;;;;;;;;;53.50;40.50;;;;;;;;5010837;28;45684;-77
2021/07/02 02:12:02;;;;;;;;;52.75;40.00;;;;;;;;5009418;28;45554;-77
2021/07/02 02:14:27;;;;;;;;;51.50;42.25;;;;;;;;5017274;28;45629;-77
2021/07/02 02:16:53;;;;;;;;;56.67;42.00;;;;;;;;5013775;28;45972;-77
2021/07/02 02:19:18;;;;;;;;;57.25;43.75;;;;;;;;5016618;28;46117;-77
2021/07/02 02:21:43;;;;;;;;;60.00;45.25;;;;;;;;5013481;28;46364;-77
2021/07/02 02:24:09;;;;;;;;;55.50;42.75;;;;;;;;5007349;28;45736;-77
2021/07/02 02:26:34;;;;;;;;;63.25;47.75;;;;;;;;5017539;28;45655;-77
2021/07/02 02:28:59;;;;;;;;;56.00;46.00;;;;;;;;5018386;28;45562;-77
2021/07/02 02:31:24;;;;;;;;;59.00;47.67;;;;;;;;5009675;28;45561;-77
2021/07/02 02:33:50;;;;;;;;;59.67;45.00;;;;;;;;5013026;28;46310;-77
2021/07/02 02:36:15;;;;;;;;;62.75;48.00;;;;;;;;5010532;28;46170;-77
2021/07/02 02:38:40;;;;;;;;;58.67;46.00;;;;;;;;5017699;28;45500;-77
2021/07/02 02:41:05;;;;;;;;;58.00;44.67;;;;;;;;5011638;28;45578;-77
2021/07/02 02:43:31;;;;;;;;;60.75;44.50;;;;;;;;5016564;28;45576;-77
2021/07/02 02:45:56;;;;;;;;;56.75;43.00;;;;;;;;5018523;28;45600;-77
2021/07/02 02:48:21;;;;;;;;;59.33;45.67;;;;;;;;5013945;28;48235;-77
2021/07/02 02:50:47;;;;;;;;;58.75;44.50;;;;;;;;5021026;28;45886;-77
2021/07/02 02:53:12;;;;;;;;;56.75;44.75;;;;;;;;5018338;28;45561;-77
2021/07/02 02:55:37;;;;;;;;;56.00;44.67;;;;;;;;5013572;28;46092;-77
2021/07/02 02:58:03;;;;;;;;;56.50;45.00;;;;;;;;5012009;28;46027;-79
2021/07/02 03:00:28;;;;;;;;;60.67;44.67;;;;;;;;5008449;28;45588;-78
2021/07/02 03:02:53;;;;;;;;;52.67;44.00;;;;;;;;5025187;28;45670;-78
2021/07/02 03:05:18;;;;;;;;;56.33;42.67;;;;;;;;5019640;28;46151;-78
2021/07/02 03:07:44;;;;;;;;;57.67;45.00;;;;;;;;5012639;28;45580;-78
2021/07/02 03:10:10;;;;;;;;;60.50;43.75;;;;;;;;5016182;28;45948;-78
2021/07/02 03:12:35;;;;;;;;;60.25;46.00;;;;;;;;5012348;28;45565;-78
2021/07/02 03:15:01;;;;;;;;;58.50;45.00;;;;;;;;5010842;28;54475;-79
2021/07/02 03:17:26;;;;;;;;;58.33;43.33;;;;;;;;5015979;28;45567;-79
2021/07/02 03:19:51;;;;;;;;;60.25;46.25;;;;;;;;5011720;28;45879;-78
2021/07/02 03:22:17;;;;;;;;;59.00;45.50;;;;;;;;5017818;28;45486;-79
2021/07/02 03:24:42;;;;;;;;;54.25;42.50;;;;;;;;5013730;28;46642;-79
2021/07/02 03:27:07;;;;;;;;;51.00;42.00;;;;;;;;5011282;28;45498;-79
2021/07/02 03:29:32;;;;;;;;;58.25;43.25;;;;;;;;5010872;28;45692;-78
2021/07/02 03:31:58;;;;;;;;;53.75;41.50;;;;;;;;5005810;28;46060;-79
2021/07/02 03:34:23;;;;;;;;;56.67;44.00;;;;;;;;5015284;28;45946;-78
2021/07/02 03:36:48;;;;;;;;;53.33;43.00;;;;;;;;5010760;28;45870;-79
2021/07/02 03:39:13;;;;;;;;;57.67;43.00;;;;;;;;5009087;28;45677;-79
2021/07/02 03:41:38;;;;;;;;;48.50;38.75;;;;;;;;5012497;28;45485;-78
2021/07/02 03:44:04;;;;;;;;;54.00;41.67;;;;;;;;5005697;28;49167;-79
2021/07/02 03:46:29;;;;;;;;;55.75;43.50;;;;;;;;5011655;28;45549;-79
2021/07/02 03:48:55;;;;;;;;;49.75;40.50;;;;;;;;5011713;28;45779;-78
2021/07/02 03:51:20;;;;;;;;;52.00;39.50;;;;;;;;5006084;28;45596;-79
2021/07/02 03:53:45;;;;;;;;;52.00;42.33;;;;;;;;5017751;28;45936;-79
2021/07/02 03:56:10;;;;;;;;;53.25;40.25;;;;;;;;5011860;28;49259;-78
2021/07/02 03:58:36;;;;;;;;;53.00;40.75;;;;;;;;5016229;28;51177;-77
2021/07/02 04:01:01;;;;;;;;;48.33;39.67;;;;;;;;5014832;28;45612;-77
2021/07/02 04:03:29;;;;;;;;;51.00;40.75;;;;;;;;5018552;28;47347;-77
2021/07/02 04:05:54;;;;;;;;;50.00;39.25;;;;;;;;5015183;28;45584;-77
2021/07/02 04:08:20;;;;;;;;;51.67;39.00;;;;;;;;5011974;28;45331;-77
2021/07/02 04:10:45;;;;;;;;;50.67;40.00;;;;;;;;5014216;28;46866;-77
2021/07/02 04:13:11;;;;;;;;;48.25;38.00;;;;;;;;5017380;28;45962;-78
2021/07/02 04:15:37;;;;;;;;;44.00;35.00;;;;;;;;5009147;28;45422;-79
2021/07/02 04:18:02;;;;;;;;;51.25;38.00;;;;;;;;5007617;28;45562;-77
2021/07/02 04:20:28;;;;;;;;;47.75;36.25;;;;;;;;5013658;28;45716;-77
2021/07/02 04:22:53;;;;;;;;;48.25;38.75;;;;;;;;5008695;28;46296;-77
2021/07/02 04:25:18;;;;;;;;;45.67;32.00;;;;;;;;5013738;28;45432;-77
2021/07/02 04:27:43;;;;;;;;;47.00;37.67;;;;;;;;5015463;28;45877;-77
2021/07/02 04:30:09;;;;;;;;;52.67;37.00;;;;;;;;5024349;28;46293;-77
2021/07/02 04:32:36;;;;;;;;;43.00;33.50;;;;;;;;5011118;28;45706;-77
2021/07/02 04:35:01;;;;;;;;;43.25;36.25;;;;;;;;5005602;28;49079;-77
2021/07/02 04:37:27;;;;;;;;;44.25;36.25;;;;;;;;5008240;28;45348;-77
2021/07/02 04:39:52;;;;;;;;;44.00;37.00;;;;;;;;5016995;28;45986;-77
2021/07/02 04:42:17;;;;;;;;;44.25;36.00;;;;;;;;5012610;28;45729;-77
2021/07/02 04:44:43;;;;;;;;;42.25;37.25;;;;;;;;5020935;28;45680;-78
2021/07/02 04:47:08;;;;;;;;;37.75;32.50;;;;;;;;5008109;28;45622;-77
2021/07/02 04:49:34;;;;;;;;;47.00;35.00;;;;;;;;5012185;28;45615;-77
2021/07/02 04:51:59;;;;;;;;;43.50;34.00;;;;;;;;5020751;28;45768;-77
2021/07/02 04:54:25;;;;;;;;;42.25;33.75;;;;;;;;5002732;28;45826;-77
2021/07/02 04:56:51;;;;;;;;;36.00;33.00;;;;;;;;5018192;28;45662;-78
2021/07/02 04:59:18;;;;;;;;;48.00;34.75;;;;;;;;5013458;28;45606;-77
2021/07/02 05:01:44;;;;;;;;;34.75;32.25;;;;;;;;5010416;28;46198;-77
2021/07/02 05:04:10;;;;;;;;;35.75;32.25;;;;;;;;5018695;28;45759;-78
2021/07/02 05:06:36;;;;;;;;;41.25;35.00;;;;;;;;5014113;28;45719;-77
2021/07/02 05:09:04;;;;;;;;;35.50;32.00;;;;;;;;5012679;28;45628;-78
2021/07/02 05:11:29;;;;;;;;;39.00;31.25;;;;;;;;5016212;28;47161;-77
2021/07/02 05:13:55;;;;;;;;;38.50;32.50;;;;;;;;5005852;28;48812;-77
2021/07/02 05:16:20;;;;;;;;;46.00;33.25;;;;;;;;5021903;28;45564;-77
2021/07/02 05:18:45;;;;;;;;;42.25;34.75;;;;;;;;5013046;28;45538;-77
2021/07/02 05:21:10;;;;;;;;;36.50;29.25;;;;;;;;5010432;28;50308;-77
2021/07/02 05:23:36;;;;;;;;;32.00;27.33;;;;;;;;5018610;28;46148;-77
2021/07/02 05:26:02;;;;;;;;;33.50;32.00;;;;;;;;5007982;28;47566;-78
2021/07/02 05:28:27;;;;;;;;;39.00;32.50;;;;;;;;5012869;28;45732;-78
2021/07/02 05:30:52;;;;;;;;;36.75;31.75;;;;;;;;5007364;28;48466;-77
2021/07/02 05:33:17;;;;;;;;;35.50;31.00;;;;;;;;5005518;28;45932;-77
2021/07/02 05:35:43;;;;;;;;;38.25;31.75;;;;;;;;5016574;28;45437;-78
2021/07/02 05:38:08;;;;;;;;;42.50;31.00;;;;;;;;5016184;28;45746;-77
2021/07/02 05:40:33;;;;;;;;;34.00;28.25;;;;;;;;5027877;28;46303;-78
2021/07/02 05:42:59;;;;;;;;;43.75;33.25;;;;;;;;5007057;28;46755;-78
2021/07/02 05:45:24;;;;;;;;;35.50;30.75;;;;;;;;5008481;28;45532;-77
2021/07/02 05:47:50;;;;;;;;;34.50;31.25;;;;;;;;5025881;28;46100;-78
2021/07/02 05:50:16;;;;;;;;;35.75;31.50;;;;;;;;5010847;28;47873;-78
2021/07/02 05:55:17;;;;;;;;;39.75;33.50;;;;;;;;5445193;22;45584;-77
2021/07/02 06:15:47;;;;;;;;;33.50;30.00;;;;;;;;5617345;22;45969;-89
2021/07/02 06:18:13;;;;;;;;;36.75;31.25;;;;;;;;5076731;22;44916;-89
2021/07/02 06:43:53;;;;;;;;;48.75;37.75;;;;;;;;5526447;22;45819;-80
2021/07/02 06:46:19;;;;;;;;;44.75;34.50;;;;;;;;5022504;28;45811;-79
2021/07/02 06:48:44;;;;;;;;;42.00;35.75;;;;;;;;5016539;28;45625;-81
2021/07/02 06:51:09;;;;;;;;;41.00;34.50;;;;;;;;5025176;28;47872;-80
2021/07/02 06:53:35;;;;;;;;;42.75;35.75;;;;;;;;5035869;28;46368;-80
2021/07/02 06:56:00;;;;;;;;;38.00;32.75;;;;;;;;5018984;28;45426;-80
2021/07/02 06:58:25;;;;;;;;;37.00;32.75;;;;;;;;5019062;28;45859;-78
2021/07/02 07:00:51;;;;;;;;;38.75;33.50;;;;;;;;5018667;28;47725;-79
2021/07/02 07:03:16;;;;;;;;;42.67;33.67;;;;;;;;5021648;28;45832;-78
2021/07/02 07:05:41;;;;;;;;;32.67;30.00;;;;;;;;5028239;28;45938;-78
2021/07/02 07:08:08;;;;;;;;;40.00;32.00;;;;;;;;5035662;28;45513;-79
2021/07/02 07:10:34;;;;;;;;;38.75;32.00;;;;;;;;5022143;28;45510;-78
2021/07/02 07:13:00;;;;;;;;;43.50;34.25;;;;;;;;5015793;28;45876;-78
2021/07/02 07:15:25;;;;;;;;;40.75;31.25;;;;;;;;5016844;28;45533;-78
2021/07/02 07:17:51;;;;;;;;;36.00;31.00;;;;;;;;5346622;22;45542;-79
2021/07/02 07:20:19;;;;;;;;;35.00;29.50;;;;;;;;5016913;28;45529;-77
2021/07/02 07:22:44;;;;;;;;;36.75;31.50;;;;;;;;5018998;28;45592;-78
2021/07/02 07:25:10;;;;;;;;;38.00;30.75;;;;;;;;5021856;28;45845;-82
2021/07/02 07:27:36;;;;;;;;;34.50;31.25;;;;;;;;5015642;28;45888;-78
2021/07/02 07:30:02;;;;;;;;;32.00;26.50;;;;;;;;5039284;28;47213;-79
2021/07/02 07:32:27;;;;;;;;;36.50;29.75;;;;;;;;5012534;28;45588;-79
2021/07/02 07:37:20;;;;;;;;;36.33;29.67;;;;;;;;5020618;28;45525;-79
2021/07/02 07:39:49;;;;;;;;;32.25;27.75;;;;;;;;5015043;28;46158;-76
2021/07/02 07:42:15;;;;;;;;;29.50;26.25;;;;;;;;5012429;28;45675;-76
2021/07/02 07:44:40;;;;;;;;;36.00;30.00;;;;;;;;5016054;28;45426;-75
2021/07/02 07:47:06;;;;;;;;;32.00;30.50;;;;;;;;5024822;28;45827;-75
2021/07/02 07:49:31;;;;;;;;;34.25;28.75;;;;;;;;5005741;28;45782;-75
2021/07/02 07:52:14;;;;;;;;;35.50;30.00;;;;;;;;5015929;28;45688;-76
2021/07/02 07:54:40;;;;;;;;;31.00;26.75;;;;;;;;5008923;28;45474;-77
2021/07/02 07:57:06;;;;;;;;;27.75;26.75;;;;;;;;5008129;28;45580;-80
2021/07/02 07:59:33;;;;;;;;;30.75;26.50;;;;;;;;5019417;28;48125;-79
2021/07/02 08:01:58;;;;;;;;;24.50;23.50;;;;;;;;5009833;28;46080;-79
2021/07/02 08:04:23;;;;;;;;;23.25;20.25;;;;;;;;5011539;28;45701;-80
2021/07/02 08:06:51;;;;;;;;;23.33;22.00;;;;;;;;5009462;28;45585;-79
2021/07/02 08:09:16;;;;;;;;;26.25;22.00;;;;;;;;5005753;28;47679;-79
2021/07/02 08:11:42;;;;;;;;;26.50;20.50;;;;;;;;5012996;28;46179;-79
2021/07/02 08:14:08;;;;;;;;;19.75;17.00;;;;;;;;5003804;28;45949;-79
2021/07/02 08:16:33;;;;;;;;;27.75;23.00;;;;;;;;5017505;28;45550;-79
2021/07/02 08:18:59;;;;;;;;;26.00;23.75;;;;;;;;5019968;28;45893;-79
2021/07/02 08:21:24;;;;;;;;;34.00;24.75;;;;;;;;5009586;28;45582;-80
2021/07/02 08:23:49;;;;;;;;;20.50;19.00;;;;;;;;5013100;28;45589;-78
2021/07/02 08:26:14;;;;;;;;;32.00;27.50;;;;;;;;5009630;28;47595;-79
2021/07/02 08:31:24;;;;;;;;;26.75;22.50;;;;;;;;5015892;28;45648;-79
2021/07/02 08:33:49;;;;;;;;;23.75;22.50;;;;;;;;5012976;28;45539;-79
2021/07/02 08:36:15;;;;;;;;;22.00;21.75;;;;;;;;5008071;28;45545;-79
2021/07/02 08:38:40;;;;;;;;;31.00;27.67;;;;;;;;5011706;28;45870;-79
2021/07/02 08:41:07;;;;;;;;;29.50;27.00;;;;;;;;5001783;28;45564;-79
2021/07/02 08:43:32;;;;;;;;;27.00;26.00;;;;;;;;5004090;28;45557;-79
2021/07/02 08:45:58;;;;;;;;;23.00;22.50;;;;;;;;5004491;28;45865;-80
2021/07/02 08:48:23;;;;;;;;;22.75;20.25;;;;;;;;5002150;28;53493;-80
2021/07/02 08:50:52;;;;;;;;;22.50;22.50;;;;;;;;5007440;28;45602;-80
2021/07/02 08:53:17;;;;;;;;;23.50;23.00;;;;;;;;5000477;28;46057;-79
2021/07/02 08:55:43;;;;;;;;;24.67;21.00;;;;;;;;4997086;28;47781;-81
2021/07/02 08:58:14;;;;;;;;;23.50;19.50;;;;;;;;5018729;28;47697;-79
2021/07/02 09:00:43;;;;;;;;;26.00;22.75;;;;;;;;4997881;28;45596;-79
2021/07/02 09:03:28;;;;;;;;;28.00;22.25;;;;;;;;5001853;28;45554;-81
2021/07/02 09:05:54;;;;;;;;;22.00;20.50;;;;;;;;5010344;28;45694;-82
2021/07/02 09:08:21;;;;;;;;;22.75;19.50;;;;;;;;5013116;28;45501;-81
2021/07/02 09:10:47;;;;;;;;;20.75;15.75;;;;;;;;5009661;28;46507;-81
2021/07/02 09:13:13;;;;;;;;;18.00;15.00;;;;;;;;5021248;28;45970;-81
2021/07/02 09:15:43;;;;;;;;;20.00;16.25;;;;;;;;5006434;28;47550;-82
2021/07/02 09:18:09;;;;;;;;;16.00;14.25;;;;;;;;5007077;28;45381;-82
2021/07/02 09:20:36;;;;;;;;;20.00;17.75;;;;;;;;5016542;28;45775;-82
2021/07/02 09:23:15;;;;;;;;;;;;;;;;;;;;;
2021/07/02 09:25:45;;;;;;;;;22.25;16.50;;;;;;;;5007195;28;70662;-82
2021/07/02 09:28:12;;;;;;;;;17.50;17.00;;;;;;;;5015116;28;45970;-82
2021/07/02 09:30:38;;;;;;;;;18.25;14.75;;;;;;;;5007579;28;45563;-81
2021/07/02 09:33:07;;;;;;;;;17.00;14.50;;;;;;;;5015615;28;45742;-83
2021/07/02 09:35:37;;;;;;;;;18.00;16.75;;;;;;;;5009665;28;46137;-81
2021/07/02 09:38:03;;;;;;;;;16.50;16.50;;;;;;;;5010796;28;47698;-82
2021/07/02 09:40:30;;;;;;;;;16.50;16.25;;;;;;;;5019128;28;45573;-81
2021/07/02 09:43:09;;;;;;;;;15.00;12.25;;;;;;;;5015170;28;45960;-81
2021/07/02 09:45:54;;;;;;;;;16.00;16.00;;;;;;;;5011774;28;55978;-81
2021/07/02 09:48:21;;;;;;;;;17.00;15.00;;;;;;;;5026882;28;47083;-82
2021/07/02 09:50:50;;;;;;;;;21.25;20.25;;;;;;;;5021195;28;45572;-82
2021/07/02 09:53:25;;;;;;;;;17.75;17.25;;;;;;;;5017689;28;45544;-82
2021/07/02 09:55:54;;;;;;;;;20.25;17.00;;;;;;;;5016293;28;46208;-82
2021/07/02 09:58:25;;;;;;;;;18.00;16.25;;;;;;;;5016326;28;45636;-82
2021/07/02 10:00:52;;;;;;;;;14.75;14.75;;;;;;;;5011636;28;45516;-82
2021/07/02 10:03:24;;;;;;;;;17.25;15.75;;;;;;;;5014784;28;45624;-84
2021/07/02 10:05:49;;;;;;;;;13.25;13.00;;;;;;;;5027226;28;49649;-82
2021/07/02 10:08:15;;;;;;;;;16.50;13.75;;;;;;;;5006343;28;51232;-83
2021/07/02 10:10:41;;;;;;;;;15.25;14.75;;;;;;;;5014872;28;45971;-82
2021/07/02 10:13:07;;;;;;;;;18.50;16.75;;;;;;;;5014766;28;47350;-82
2021/07/02 10:15:32;;;;;;;;;18.00;15.25;;;;;;;;5011156;28;45675;-82
2021/07/02 10:17:58;;;;;;;;;15.50;13.25;;;;;;;;5017826;28;45834;-82
2021/07/02 10:20:25;;;;;;;;;15.75;14.25;;;;;;;;5012812;28;45822;-82
2021/07/02 10:22:51;;;;;;;;;15.50;14.50;;;;;;;;5024572;28;45681;-81
2021/07/02 10:25:18;;;;;;;;;17.00;16.25;;;;;;;;5016031;28;45692;-81
2021/07/02 10:27:44;;;;;;;;;18.75;16.25;;;;;;;;5020114;28;45565;-82
2021/07/02 10:30:09;;;;;;;;;14.25;14.00;;;;;;;;5019229;28;46155;-82
2021/07/02 10:32:36;;;;;;;;;15.50;13.50;;;;;;;;5015806;28;45573;-82
2021/07/02 10:35:02;;;;;;;;;15.50;15.00;;;;;;;;5013354;28;57034;-82
2021/07/02 10:37:29;;;;;;;;;15.25;13.00;;;;;;;;5016357;28;45982;-82
2021/07/02 10:39:55;;;;;;;;;16.00;12.75;;;;;;;;5027976;28;50211;-82
2021/07/02 10:52:44;;;;;;;;;15.50;13.00;;;;;;;;5410212;22;45343;-82
2021/07/02 10:55:29;;;;;;;;;13.75;13.75;;;;;;;;5022101;28;46601;-81
2021/07/02 10:57:54;;;;;;;;;12.50;12.50;;;;;;;;5002414;28;47277;-81
2021/07/02 11:00:19;;;;;;;;;16.33;15.00;;;;;;;;5020037;28;46007;-82
2021/07/02 11:02:46;;;;;;;;;14.00;13.00;;;;;;;;5008588;28;45550;-82
2021/07/02 11:05:25;;;;;;;;;19.50;17.50;;;;;;;;5003543;28;46194;-81
2021/07/02 11:07:53;;;;;;;;;14.25;14.25;;;;;;;;4996699;28;47279;-82
2021/07/02 11:10:18;;;;;;;;;14.25;12.75;;;;;;;;4992347;28;45722;-82
2021/07/02 11:12:44;;;;;;;;;14.50;13.75;;;;;;;;5001906;28;45485;-81
2021/07/02 11:15:17;;;;;;;;;15.67;13.67;;;;;;;;5000160;28;49497;-82
2021/07/02 11:17:49;;;;;;;;;14.00;13.00;;;;;;;;5003928;28;46028;-81
2021/07/02 11:20:18;;;;;;;;;13.00;12.75;;;;;;;;5002001;28;45474;-82
2021/07/02 11:22:45;;;;;;;;;16.50;13.00;;;;;;;;5019825;28;45514;-82
2021/07/02 11:25:32;;;;;;;;;15.75;11.00;;;;;;;;5013933;28;46419;-84
2021/07/02 11:27:59;;;;;;;;;15.50;13.00;;;;;;;;5005484;28;46671;-80
2021/07/02 11:30:36;;;;;;;;;13.00;13.00;;;;;;;;5016225;28;45998;-82
2021/07/02 11:33:01;;;;;;;;;11.50;11.50;;;;;;;;5005950;28;46121;-82
2021/07/02 11:35:28;;;;;;;;;17.25;15.75;;;;;;;;5000190;28;45718;-80
2021/07/02 11:38:14;;;;;;;;;14.50;11.75;;;;;;;;5001998;28;45974;-83
2021/07/02 11:40:50;;;;;;;;;12.75;12.50;;;;;;;;5029436;28;45758;-80
2021/07/02 11:43:19;;;;;;;;;16.50;15.00;;;;;;;;5003565;28;45484;-82
2021/07/02 11:46:07;;;;;;;;;19.25;14.25;;;;;;;;5003189;28;45529;-80
2021/07/02 11:48:40;;;;;;;;;13.75;12.75;;;;;;;;5026201;22;47182;-88
2021/07/02 11:51:08;;;;;;;;;14.75;13.25;;;;;;;;5030415;28;45436;-90
2021/07/02 11:53:39;;;;;;;;;12.25;12.25;;;;;;;;5032207;28;45722;-86
2021/07/02 11:58:45;;;;;;;;;12.25;11.00;;;;;;;;5016135;28;46134;-82
2021/07/02 12:01:14;;;;;;;;;15.75;12.75;;;;;;;;5022465;28;45558;-82
2021/07/02 12:03:49;;;;;;;;;14.75;12.00;;;;;;;;5017468;28;45905;-81
2021/07/02 12:06:17;;;;;;;;;16.50;13.00;;;;;;;;5033321;28;45583;-81
2021/07/02 12:11:24;;;;;;;;;12.75;12.75;;;;;;;;5110510;22;45608;-80
2021/07/02 12:13:51;;;;;;;;;13.50;12.00;;;;;;;;5005541;28;45667;-80
2021/07/02 12:16:16;;;;;;;;;13.75;12.25;;;;;;;;4987162;28;46068;-82
2021/07/02 12:26:28;;;;;;;;;13.00;11.00;;;;;;;;5122112;22;45476;-80
2021/07/02 12:29:19;;;;;;;;;14.25;12.25;;;;;;;;5013147;28;46244;-80
2021/07/02 12:31:52;;;;;;;;;9.25;8.75;;;;;;;;5012976;28;45521;-81
2021/07/02 12:37:09;;;;;;;;;11.50;10.00;;;;;;;;6102651;22;45805;-79
2021/07/02 12:39:36;;;;;;;;;9.50;9.00;;;;;;;;4979994;28;45830;-79
2021/07/02 12:42:03;;;;;;;;;13.00;10.00;;;;;;;;4988226;28;45776;-79
2021/07/02 12:44:29;;;;;;;;;10.25;10.00;;;;;;;;4981809;28;46272;-79
2021/07/02 12:46:54;;;;;;;;;12.50;11.75;;;;;;;;4980244;28;45399;-80
2021/07/02 12:49:22;;;;;;;;;10.50;10.25;;;;;;;;4981706;28;46150;-79
2021/07/02 13:07:18;;;;;;;;;11.00;11.00;;;;;;;;5843918;22;46307;-78
2021/07/02 13:09:43;;;;;;;;;11.25;9.00;;;;;;;;5014094;28;46759;-78
2021/07/02 13:12:24;;;;;;;;;;;;;;;;;;;;;
2021/07/02 13:15:20;;;;;;;;;;;;;;;;;;;;;
2021/07/02 13:17:46;;;;;;;;;9.50;9.00;;;;;;;;5014264;22;66711;-90
2021/07/02 13:20:13;;;;;;;;;10.50;8.75;;;;;;;;5025086;28;46582;-89
2021/07/02 13:22:39;;;;;;;;;14.00;10.25;;;;;;;;5019754;28;45292;-90
2021/07/02 13:25:11;;;;;;;;;10.50;9.00;;;;;;;;5031750;28;45346;-90
2021/07/02 13:27:36;;;;;;;;;10.00;9.00;;;;;;;;5024607;28;45683;-89
2021/07/02 13:30:06;;;;;;;;;10.00;9.50;;;;;;;;5058024;22;47233;-79
2021/07/02 13:32:31;;;;;;;;;9.25;9.25;;;;;;;;5030688;28;45623;-80
2021/07/02 13:34:57;;;;;;;;;10.75;9.25;;;;;;;;5035799;28;45583;-80
2021/07/02 13:37:26;;;;;;;;;11.50;9.25;;;;;;;;5055236;22;45423;-89
2021/07/02 13:39:51;;;;;;;;;9.25;7.50;;;;;;;;5023091;28;48462;-89
2021/07/02 13:42:21;;;;;;;;;11.00;10.00;;;;;;;;5173966;22;46010;-88
2021/07/02 13:44:57;;;;;;;;;13.00;10.00;;;;;;;;5033071;28;45562;-89
2021/07/02 13:47:29;;;;;;;;;10.00;8.25;;;;;;;;5027812;28;45714;-89
2021/07/02 13:52:26;;;;;;;;;10.00;9.50;;;;;;;;5000493;28;45551;-79
2021/07/02 13:54:52;;;;;;;;;9.25;9.00;;;;;;;;4989411;28;47822;-79
2021/07/02 13:57:18;;;;;;;;;13.75;9.25;;;;;;;;4986516;28;45509;-77
2021/07/02 13:59:44;;;;;;;;;11.00;9.75;;;;;;;;4997519;28;46984;-77
2021/07/02 14:02:09;;;;;;;;;11.00;9.50;;;;;;;;4991234;28;45422;-78
2021/07/02 14:04:35;;;;;;;;;9.75;8.50;;;;;;;;5002695;28;45759;-78
2021/07/02 14:07:02;;;;;;;;;11.00;10.25;;;;;;;;5011671;28;47412;-78
2021/07/02 14:09:28;;;;;;;;;9.75;9.00;;;;;;;;4999595;28;47037;-79
2021/07/02 14:11:53;;;;;;;;;12.00;9.50;;;;;;;;5015221;28;45628;-78
2021/07/02 14:14:19;;;;;;;;;9.25;7.75;;;;;;;;5009539;28;45696;-79
2021/07/02 14:16:45;;;;;;;;;10.00;8.50;;;;;;;;4995308;28;45554;-79
2021/07/02 14:19:12;;;;;;;;;12.00;9.50;;;;;;;;4996940;28;48658;-79
2021/07/02 14:21:39;;;;;;;;;9.25;9.25;;;;;;;;4994996;28;45498;-79
2021/07/02 14:24:06;;;;;;;;;10.00;8.75;;;;;;;;4996129;28;45628;-79
2021/07/02 14:26:31;;;;;;;;;9.00;8.50;;;;;;;;4995802;28;45513;-78
2021/07/02 14:28:56;;;;;;;;;7.25;6.25;;;;;;;;4998011;28;45509;-80
2021/07/02 14:31:22;;;;;;;;;12.00;9.50;;;;;;;;5022981;22;46157;-80
2021/07/02 14:33:48;;;;;;;;;11.00;8.75;;;;;;;;5029690;28;45765;-78
2021/07/02 14:36:13;;;;;;;;;11.25;10.00;;;;;;;;5064127;22;45802;-78
2021/07/02 14:38:38;;;;;;;;;11.25;9.75;;;;;;;;5012347;28;46874;-77
2021/07/02 14:41:04;;;;;;;;;11.75;8.00;;;;;;;;5012880;28;45576;-78
2021/07/02 14:43:29;;;;;;;;;9.50;7.75;;;;;;;;5013046;28;45495;-77
2021/07/02 14:45:54;;;;;;;;;10.25;10.25;;;;;;;;5036595;22;45768;-78
2021/07/02 14:51:03;;;;;;;;;10.50;9.50;;;;;;;;4843113;26;46120;-80
2021/07/02 14:53:31;;;;;;;;;9.00;9.00;;;;;;;;5028097;28;45810;-80
2021/07/02 14:55:58;;;;;;;;;11.00;9.00;;;;;;;;5041631;27;45687;-80
2021/07/02 14:58:23;;;;;;;;;11.00;9.00;;;;;;;;5020340;28;46430;-79
2021/07/02 15:00:48;;;;;;;;;10.25;9.75;;;;;;;;5018773;28;45424;-79
2021/07/02 15:03:14;;;;;;;;;9.75;9.50;;;;;;;;5028011;28;45445;-79
2021/07/02 15:05:39;;;;;;;;;9.67;9.67;;;;;;;;5014919;28;45608;-79
2021/07/02 15:08:05;;;;;;;;;11.00;9.75;;;;;;;;5009813;28;45681;-78
2021/07/02 15:10:30;;;;;;;;;11.50;10.50;;;;;;;;5014776;28;45442;-78
2021/07/02 15:12:56;;;;;;;;;12.00;10.50;;;;;;;;5018916;28;47774;-79
2021/07/02 15:15:21;;;;;;;;;11.75;10.75;;;;;;;;5013885;28;45624;-79
2021/07/02 15:17:47;;;;;;;;;14.00;10.75;;;;;;;;5012064;28;45474;-80
2021/07/02 15:20:12;;;;;;;;;16.75;10.75;;;;;;;;5012690;28;45585;-79
2021/07/02 15:22:37;;;;;;;;;9.75;9.75;;;;;;;;5033214;28;45551;-78
2021/07/02 15:25:03;;;;;;;;;9.00;9.00;;;;;;;;5011790;28;45935;-78
2021/07/02 15:27:29;;;;;;;;;10.00;10.00;;;;;;;;5015644;28;47214;-79
2021/07/02 15:30:13;;;;;;;;;9.75;8.00;;;;;;;;5026492;28;45806;-78
2021/07/02 15:32:38;;;;;;;;;9.00;8.50;;;;;;;;5015699;28;45526;-79
2021/07/02 15:35:04;;;;;;;;;12.00;8.50;;;;;;;;5005932;28;46077;-79
2021/07/02 15:37:30;;;;;;;;;10.25;8.75;;;;;;;;5009465;28;46138;-79
2021/07/02 15:39:55;;;;;;;;;10.00;10.00;;;;;;;;5011949;28;45720;-81
2021/07/02 15:42:20;;;;;;;;;11.00;10.00;;;;;;;;5011918;28;45625;-81
2021/07/02 15:44:58;;;;;;;;;11.67;11.67;;;;;;;;5103830;22;45733;-80
2021/07/02 15:47:24;;;;;;;;;10.00;9.50;;;;;;;;5013573;28;45544;-80
2021/07/02 15:49:49;;;;;;;;;11.25;10.00;;;;;;;;5012645;28;45494;-79
2021/07/02 15:52:15;;;;;;;;;11.75;9.75;;;;;;;;5011113;28;45679;-79
2021/07/02 15:54:40;;;;;;;;;12.50;11.25;;;;;;;;5024612;28;49030;-80
2021/07/02 15:57:05;;;;;;;;;9.00;9.00;;;;;;;;5022548;28;46102;-80